This is the latest recevied weather packets stored in our database for station/object DL9GJ-6. If no packets are shown the sender has not sent any weather packets the latest 10 day(s).
| Time | Temp. | Humidity | Pressure | Rain* | Wind** | Luminosity | Snow |
|---|---|---|---|---|---|---|---|
| 1777730889 | 24.44° C | 34% | 1018.3 hPa | 0 mm | - | 199 W/m² | - |
| 1777730532 | 24.44° C | 33% | 1018.4 hPa | 0 mm | - | 301 W/m² | - |
| 1777727648 | 24.44° C | 34% | 1019 hPa | 0 mm | - | 685 W/m² | - |
| 1777725489 | 23.89° C | 32% | 1019.4 hPa | 0 mm | - | 770 W/m² | - |
| 1777725132 | 23.89° C | 32% | 1019.6 hPa | 0 mm | - | 747 W/m² | - |
| 1777724054 | 23.89° C | 32% | 1019.8 hPa | 0 mm | - | 759 W/m² | - |
| 1777722249 | 23.33° C | 32% | 1020.2 hPa | 0 mm | - | 808 W/m² | - |
| 1777721893 | 23.33° C | 32% | 1020.4 hPa | 0 mm | - | 822 W/m² | - |
| 1777720088 | 22.78° C | 32% | 1020.7 hPa | 0 mm | - | 859 W/m² | - |
| 1777719370 | 22.78° C | 37% | 1020.8 hPa | 0 mm | - | 795 W/m² | - |
| 1777719010 | 22.22° C | 38% | 1020.9 hPa | 0 mm | - | 806 W/m² | - |
| 1777717210 | 20.56° C | 46% | 1021.5 hPa | 0 mm | - | 756 W/m² | - |
| 1777716850 | 20.56° C | 46% | 1021.5 hPa | 0 mm | - | 756 W/m² | - |
| 1777716489 | 20.56° C | 46% | 1021.5 hPa | 0 mm | - | 756 W/m² | - |
| 1777716130 | 20.56° C | 46% | 1021.5 hPa | 0 mm | - | 746 W/m² | - |
| 1777715410 | 21.11° C | 47% | 1021.6 hPa | 0 mm | - | 821 W/m² | - |
| 1777714690 | 19.44° C | 50% | 1021.9 hPa | 0 mm | - | 761 W/m² | - |
| 1777714329 | 19.44° C | 50% | 1021.9 hPa | 0 mm | - | 732 W/m² | - |
| 1777713610 | 18.89° C | 51% | 1022 hPa | 0 mm | - | 623 W/m² | - |
| 1777713253 | 18.33° C | 54% | 1022.1 hPa | 0 mm | - | 803 W/m² | - |
| 1777712531 | 18.33° C | 52% | 1022.1 hPa | 0 mm | - | 741 W/m² | - |
| 1777709290 | 14.44° C | 59% | 1022.5 hPa | 0 mm | - | 644 W/m² | - |
| 1777706771 | 11.67° C | 65% | 1022.9 hPa | 0 mm | - | 544 W/m² | - |
| 1777706409 | 11.67° C | 66% | 1022.8 hPa | 0 mm | - | 530 W/m² | - |
| 1777705689 | 11.11° C | 68% | 1022.8 hPa | 0 mm | - | 492 W/m² | - |
* Rain latest hour (hover to see other rain measurements)
** Current wind speed in m/s (hover to see current wind gust speed)